Date,TemperatureHighF,TemperatureAvgF,TemperatureLowF,DewpointHighF,DewpointAvgF,DewpointLowF,HumidityHigh,HumidityAvg,HumidityLow,PressureMaxIn,PressureMinIn,WindSpeedMaxMPH,WindSpeedAvgMPH,GustSpeedMaxMPH,PrecipitationSumIn
2012-10-23,55.9,54.9,17.2,53.3,52.1,14.8,91,90,90,29.99,29.95,7,1,7,0.00
2012-10-24,76.1,64.2,55.7,64.8,58.7,-16.0,92,83,66,30.00,29.91,9,1,9,0.00
2012-10-25,78.6,68.0,59.7,60.9,57.5,53.2,81,70,49,29.92,29.74,30,3,30,0.00
2012-10-26,67.8,49.3,42.9,56.1,38.7,31.2,84,67,51,30.24,29.74,15,3,15,0.00
2012-10-27,53.6,42.4,33.2,38.5,32.0,-1.2,79,67,51,30.24,30.16,12,2,12,0.00
2012-10-28,48.0,40.7,34.3,36.5,29.7,25.7,78,65,53,30.24,30.15,15,5,15,0.00
2012-10-29,45.1,40.0,36.5,30.4,27.0,23.1,67,60,49,30.15,29.82,19,8,19,0.00
2012-10-30,39.9,36.4,33.9,35.3,31.4,24.6,88,83,54,29.82,29.53,23,7,23,0.00
2012-10-31,42.9,38.4,35.2,37.6,34.1,31.9,89,85,75,29.65,29.53,16,4,16,1.34
2012-11-1,49.2,42.3,38.8,35.5,32.8,28.3,87,70,50,29.77,29.64,14,4,14,0.00
2012-11-2,42.0,38.8,34.3,30.7,29.1,26.2,78,68,61,30.07,29.76,15,4,15,0.00
2012-11-3,40.6,34.2,29.3,29.9,26.7,23.9,83,74,64,30.19,30.07,9,1,9,0.00
2012-11-4,45.5,34.3,28.0,29.8,24.9,20.4,76,69,53,30.21,30.15,10,1,10,0.00
2012-11-5,41.0,32.8,25.1,30.1,24.5,19.2,80,72,61,30.22,30.15,11,2,11,0.00
2012-11-6,44.0,37.0,31.2,30.1,27.2,23.2,77,68,55,30.15,29.98,10,1,10,0.00
2012-11-7,48.7,37.0,30.0,35.0,28.1,22.7,76,70,58,30.15,29.99,9,1,9,0.00
2012-11-8,47.8,33.6,26.2,33.9,26.1,-10.6,82,75,57,30.21,30.08,8,0,8,1.34
2012-11-9,53.9,43.7,35.9,42.3,35.8,-6.9,78,74,64,30.14,30.07,8,1,8,0.00
2012-11-10,59.1,50.4,43.7,49.4,42.9,-4.9,82,76,67,30.12,29.93,8,1,8,0.00
2012-11-11,70.1,61.3,55.5,51.7,46.6,-8.3,71,59,45,30.02,29.85,22,6,22,0.00
2012-11-12,61.7,44.0,31.1,48.0,34.4,-16.3,86,71,45,30.20,29.83,26,7,26,0.00
2012-11-13,40.8,32.6,27.3,23.4,20.1,-8.6,69,60,48,30.50,30.20,13,3,13,1.31
2012-11-14,41.1,31.8,23.1,26.8,21.2,-7.6,75,65,53,30.56,30.41,8,0,8,0.00
2012-11-15,47.3,34.5,26.9,32.5,25.2,-6.0,77,69,56,30.43,30.31,10,0,10,0.00
2012-11-16,54.3,37.2,27.3,40.9,29.5,0.0,81,74,58,30.47,30.33,4,0,4,0.00
2012-11-17,55.5,38.9,30.0,39.9,30.0,-4.9,85,72,49,30.57,30.47,9,0,9,0.00
2012-11-18,59.7,39.1,30.0,44.2,32.0,-18.0,87,76,49,30.52,30.38,8,0,8,0.00
2012-11-19,56.4,41.3,28.5,40.5,31.8,-24.5,86,70,51,30.39,30.14,7,0,7,0.00
2012-11-20,53.2,44.2,34.5,40.5,34.2,-9.6,75,68,61,30.15,30.06,1,0,1,0.00
2012-11-21,58.1,46.1,36.3,44.8,37.9,-6.0,85,74,60,30.21,30.08,10,1,10,0.00
2012-11-22,64.0,51.2,42.6,47.3,41.7,-2.9,87,72,45,30.08,29.70,16,5,16,0.00
2012-11-23,54.1,40.2,32.7,46.3,29.6,-7.4,76,66,58,29.95,29.60,24,8,24,0.00
2012-11-24,33.6,31.3,29.4,21.2,19.2,-10.6,68,61,56,30.08,29.95,16,4,16,0.00
2012-11-25,33.8,30.0,-21.4,26.9,23.1,-27.3,83,76,63,29.98,29.79,12,4,12,0.00
2012-11-26,33.6,31.4,29.1,24.5,20.9,-30.9,74,65,57,30.26,29.95,11,3,11,0.00
2012-11-27,37.2,28.0,21.2,20.9,17.3,-7.7,72,64,50,30.33,30.16,10,2,10,0.00
2012-11-28,39.7,31.2,26.4,25.4,20.6,-7.4,77,65,51,30.25,30.12,16,4,16,0.00
2012-11-29,48.7,36.8,26.9,33.5,26.9,-17.3,77,68,54,30.22,30.12,11,3,11,0.00
2012-11-30,38.1,35.6,34.3,34.0,30.9,29.1,85,83,77,30.26,30.17,11,3,11,0.00
2012-12-1,55.2,39.0,32.3,47.8,34.1,-3.9,85,83,75,30.26,29.89,13,1,13,0.00
2012-12-2,55.5,51.3,44.4,51.7,46.2,-6.0,90,83,75,30.10,29.86,12,3,12,0.12
2012-12-3,62.4,50.3,36.1,56.2,45.9,-4.2,89,85,79,30.11,29.79,18,3,18,0.02
2012-12-4,63.1,51.2,38.4,55.9,41.4,-5.5,87,69,55,30.10,29.79,15,6,15,0.08
2012-12-5,41.7,32.1,12.2,28.3,20.3,-0.5,70,62,51,30.38,30.10,16,3,16,0.00
2012-12-6,38.8,33.1,27.1,30.0,24.7,-6.9,76,71,63,30.33,29.90,15,3,15,0.00
2012-12-7,46.2,40.2,37.0,40.5,34.3,-5.2,85,80,75,29.94,29.89,9,1,9,0.00
2012-12-8,38.8,33.0,27.5,33.2,28.7,23.1,88,84,79,30.16,29.87,12,1,12,0.04
2012-12-9,34.1,31.4,30.0,29.4,27.2,-3.7,88,85,80,30.19,29.65,0,0,0,0.00
2012-12-10,33.6,31.5,26.7,29.6,26.1,-4.7,89,81,70,29.88,29.57,9,1,9,0.00
2012-12-11,34.3,28.2,22.6,27.2,20.3,-6.6,75,72,68,30.06,29.86,13,3,13,0.02
2012-12-12,44.7,34.3,30.7,32.0,26.1,-6.6,82,72,58,30.29,30.05,13,4,13,0.13
2012-12-13,48.3,36.2,-15.8,30.0,24.8,-26.9,76,65,46,30.29,30.08,15,5,15,0.00
2012-12-14,47.4,35.7,30.5,35.0,27.4,-8.0,81,72,61,30.22,30.09,8,1,8,0.00
2012-12-15,41.3,36.5,30.3,37.8,31.8,-4.2,88,84,81,30.16,29.62,10,1,10,0.18
2012-12-16,49.2,45.4,41.3,45.4,41.8,-2.5,90,87,82,29.63,29.54,13,2,13,0.06
2012-12-17,42.0,40.0,35.9,38.4,33.5,-4.4,87,79,69,29.71,29.61,12,2,12,0.00
2012-12-18,43.7,35.4,30.5,32.2,28.4,-5.2,84,77,62,29.74,29.63,9,1,9,0.00
2012-12-19,44.6,35.7,31.8,34.7,30.4,-3.9,86,81,67,30.10,29.73,9,1,9,0.00
2012-12-20,43.5,37.5,32.9,40.5,33.6,-3.9,89,87,83,30.06,29.11,11,2,11,0.67
2012-12-21,39.0,31.5,27.6,34.9,25.7,-3.7,89,80,69,29.87,29.14,22,8,22,0.06
2012-12-22,33.8,30.6,28.9,23.8,22.1,-6.9,77,70,65,30.04,29.87,22,6,22,0.00
2012-12-23,32.3,27.7,22.8,24.5,20.3,-5.5,82,74,66,30.02,29.85,15,2,15,0.00
2012-12-24,29.6,26.3,21.0,23.4,19.2,-7.2,79,75,70,30.02,29.86,9,2,9,0.00
2012-12-25,35.2,28.4,25.7,21.7,19.3,-5.5,79,69,54,30.32,30.00,10,4,10,0.02
2012-12-26,30.0,28.6,24.9,24.0,21.8,-7.2,85,76,70,30.29,29.93,22,8,22,0.00
2012-12-27,34.8,25.8,19.9,22.3,18.5,-3.9,84,74,58,30.13,29.93,17,3,17,0.17
2012-12-28,30.2,22.7,14.7,21.9,15.7,-6.0,80,74,68,30.15,29.94,8,0,8,0.00
2012-12-29,30.9,26.4,21.7,24.0,19.7,-5.8,82,76,69,30.03,29.83,9,2,9,0.00
2012-12-30,29.3,25.6,21.0,22.2,19.4,-4.7,82,77,70,30.23,30.02,14,4,14,0.00
2012-12-31,35.7,28.7,21.9,27.4,21.0,-5.5,80,73,62,30.10,29.84,16,5,16,0.00
2013-1-1,29.3,22.5,17.4,15.8,11.5,-9.6,73,63,52,30.13,30.00,12,4,12,0.00